Cape Hatteras Naval Facility, North Carolina
Current Conditions -  °F | °C
As of 3:51 AM on Saturday 22 Nov 2014 (Local Time) from KHSE Reporting Station
Clear Clear  
Wind Chill: 36°   Ceiling: Unl
Heat Index: 40°   Visibility: 10mi
Dew Point: 30°   Wind: 6mph
Humidity: 68%   Direction: 20°NNE
Pressure: 30.53"   Gusts: NA
Location:  35.2677°N, 75.5426°W
Report Text: KHSE 220851Z AUTO 02005KT 10SM CLR 04/M01 A3053 RMK AO2 SLP338 T00441011 58001 TSNO
Loading
Personal Weather Stations






























Interactive Weather Map New forecast layout! Learn more

10-Day Weather Forecast

Advertisements
Track Severe Weather on mobile